Time;durP1;ratioP1;P1;durP2;ratioP2;P2;SDS_P1;SDS_P2;PMS_P1;PMS_P2;Temp;Humidity;BMP_temperature;BMP_pressure;BME280_temperature;BME280_humidity;BME280_pressure;Samples;Min_cycle;Max_cycle;Signal;HPM_P1;HPM_P2
2023/10/11 00:00:24;;;;;;;6.43;3.95;;;;;;;21.49;44.02;100828.66;692952;28;1445;-88
2023/10/11 00:00:45;;;;;;;8.32;4.20;;;;;;;21.45;44.10;100823.38;699230;28;1102;-88
2023/10/11 00:01:06;;;;;;;8.38;4.10;;;;;;;21.45;44.23;100815.41;693318;28;1130;-88
2023/10/11 00:01:27;;;;;;;7.70;4.32;;;;;;;21.46;44.09;100811.84;693248;28;1229;-88
2023/10/11 00:01:48;;;;;;;7.30;4.53;;;;;;;21.45;44.25;100821.59;693402;28;1260;-88
2023/10/11 00:02:09;;;;;;;9.02;5.25;;;;;;;21.46;44.22;100819.81;692987;28;1274;-90
2023/10/11 00:02:30;;;;;;;8.93;5.07;;;;;;;21.40;44.10;100818.16;685212;28;1231;-87
2023/10/11 00:02:51;;;;;;;11.73;4.43;;;;;;;21.42;44.18;100820.75;690607;28;1324;-88
2023/10/11 00:03:53;;;;;;;7.45;4.60;;;;;;;21.37;44.16;100818.19;688127;28;830;-88
2023/10/11 00:04:26;;;;;;;8.30;4.68;;;;;;;21.37;44.27;100828.81;690334;28;1295;-88
2023/10/11 00:04:48;;;;;;;8.00;4.30;;;;;;;21.42;44.26;100826.97;693589;28;1118;-89
2023/10/11 00:05:09;;;;;;;6.93;4.20;;;;;;;21.37;44.38;100819.06;694313;28;1372;-87
2023/10/11 00:05:39;;;;;;;8.43;4.70;;;;;;;21.38;44.27;100814.63;693217;28;1144;-88
2023/10/11 00:06:04;;;;;;;8.52;4.47;;;;;;;21.43;44.32;100833.13;688138;28;1199;-90
2023/10/11 00:06:26;;;;;;;9.85;4.63;;;;;;;21.41;44.29;100826.97;693426;28;958;-89
2023/10/11 00:06:49;;;;;;;8.07;4.57;;;;;;;21.31;44.38;100810.31;692741;28;1187;-89
2023/10/11 00:07:10;;;;;;;9.02;4.55;;;;;;;21.36;44.40;100822.63;690325;28;1417;-88
2023/10/11 00:07:32;;;;;;;9.32;4.75;;;;;;;21.39;44.48;100820.81;690532;28;1343;-88
2023/10/11 00:07:57;;;;;;;8.13;4.35;;;;;;;21.40;44.16;100833.19;695619;28;1283;-89
2023/10/11 00:08:18;;;;;;;7.55;4.20;;;;;;;21.38;44.30;100819.94;693344;28;1238;-87
2023/10/11 00:08:40;;;;;;;6.72;4.00;;;;;;;21.37;44.21;100824.38;690554;28;1306;-88
2023/10/11 00:09:01;;;;;;;7.55;4.03;;;;;;;21.33;44.33;100817.34;690206;28;1344;-88
2023/10/11 00:09:38;;;;;;;6.88;4.47;;;;;;;21.27;44.24;100822.75;689676;28;1622;-85
2023/10/11 00:09:59;;;;;;;7.18;4.47;;;;;;;21.28;44.47;100821.88;695613;28;1195;-87
2023/10/11 00:10:19;;;;;;;7.70;4.40;;;;;;;21.37;44.29;100819.06;695024;28;1207;-88
2023/10/11 00:10:54;;;;;;;8.10;4.55;;;;;;;21.39;44.34;100832.28;698418;28;1200;-87
2023/10/11 00:11:19;;;;;;;6.55;4.43;;;;;;;21.34;44.32;100821.75;698769;28;1037;-89
2023/10/11 00:11:39;;;;;;;6.35;4.38;;;;;;;21.35;44.58;100830.59;691450;28;1356;-90
2023/10/11 00:12:04;;;;;;;8.70;4.20;;;;;;;21.35;44.40;100822.66;690740;28;1233;-88
2023/10/11 00:12:26;;;;;;;8.77;4.30;;;;;;;21.37;44.33;100828.81;689098;28;1176;-87
2023/10/11 00:12:47;;;;;;;9.73;4.60;;;;;;;21.32;44.30;100812.94;690107;28;1245;-87
2023/10/11 00:13:09;;;;;;;8.97;4.90;;;;;;;21.43;44.33;100827.81;694010;28;1291;-87
2023/10/11 00:13:35;;;;;;;9.70;4.72;;;;;;;21.42;44.30;100820.75;688586;28;993;-88
2023/10/11 00:13:56;;;;;;;7.47;4.20;;;;;;;21.41;44.38;100824.31;688624;28;800;-88
2023/10/11 00:14:19;;;;;;;6.87;4.40;;;;;;;21.39;44.17;100815.50;691193;28;1223;-86
2023/10/11 00:14:39;;;;;;;6.70;4.47;;;;;;;21.42;44.18;100823.41;693692;28;1026;-86
2023/10/11 00:15:02;;;;;;;7.07;4.30;;;;;;;21.39;44.17;100818.16;696977;28;1209;-87
2023/10/11 00:15:26;;;;;;;7.47;4.28;;;;;;;21.42;44.05;100819.00;690648;28;1285;-89
2023/10/11 00:15:50;;;;;;;7.05;4.20;;;;;;;21.43;44.26;100830.47;688198;28;1253;-87
2023/10/11 00:16:11;;;;;;;7.38;4.70;;;;;;;21.40;44.16;100825.22;690964;28;1066;-87
2023/10/11 00:16:35;;;;;;;8.18;4.70;;;;;;;21.45;44.01;100826.91;690858;28;1291;-88
2023/10/11 00:16:55;;;;;;;11.38;4.57;;;;;;;21.40;44.29;100822.56;691307;28;811;-87
2023/10/11 00:17:16;;;;;;;10.70;4.60;;;;;;;21.34;44.33;100808.50;693171;28;1160;-85
2023/10/11 00:17:37;;;;;;;9.15;4.70;;;;;;;21.34;44.22;100813.78;691022;28;1032;-86
2023/10/11 00:17:58;;;;;;;6.45;4.30;;;;;;;21.48;44.03;100828.63;693580;28;1054;-88
2023/10/11 00:18:20;;;;;;;7.20;4.20;;;;;;;21.47;44.11;100818.91;696539;28;1304;-88
2023/10/11 00:18:42;;;;;;;6.60;4.35;;;;;;;21.55;44.02;100825.00;691303;28;1288;-88
2023/10/11 00:19:09;;;;;;;9.32;5.00;;;;;;;21.47;43.94;100813.59;691060;28;1964;-89
2023/10/11 00:19:30;;;;;;;10.27;5.05;;;;;;;21.54;44.01;100820.59;691061;28;1222;-87
2023/10/11 00:19:50;;;;;;;11.40;5.10;;;;;;;21.60;43.92;100831.13;693972;28;1342;-87
2023/10/11 00:20:19;;;;;;;10.77;4.87;;;;;;;21.56;43.89;100818.78;685404;28;1256;-87
2023/10/11 00:21:10;;;;;;;9.23;4.50;;;;;;;21.56;43.93;100813.47;691386;28;1308;-88
2023/10/11 00:21:43;;;;;;;8.25;4.47;;;;;;;21.54;43.99;100807.31;690769;28;1336;-86
2023/10/11 00:22:05;;;;;;;7.00;4.50;;;;;;;21.55;43.83;100822.34;687712;28;1133;-87
2023/10/11 00:22:26;;;;;;;6.95;4.55;;;;;;;21.57;43.87;100814.38;691164;28;1082;-88
2023/10/11 00:22:48;;;;;;;7.00;4.23;;;;;;;21.52;44.00;100810.91;693733;28;1189;-88
2023/10/11 00:23:09;;;;;;;7.80;4.40;;;;;;;21.50;44.06;100818.88;687894;28;1286;-87
2023/10/11 00:23:31;;;;;;;6.93;3.90;;;;;;;21.44;44.16;100803.91;682638;29;1259;-87
2023/10/11 00:23:51;;;;;;;7.45;4.13;;;;;;;21.43;43.90;100806.56;694001;28;1409;-88
2023/10/11 00:24:13;;;;;;;7.45;4.20;;;;;;;21.45;44.11;100810.09;690855;28;1149;-87
2023/10/11 00:24:34;;;;;;;7.15;4.20;;;;;;;21.42;44.14;100804.81;689234;28;1188;-88
2023/10/11 00:24:55;;;;;;;10.95;4.50;;;;;;;21.45;44.32;100810.09;691455;28;799;-88
2023/10/11 00:25:23;;;;;;;14.77;4.82;;;;;;;21.46;44.22;100817.16;693313;28;1395;-88
2023/10/11 00:25:44;;;;;;;14.27;4.60;;;;;;;21.35;44.21;100806.72;685597;28;1118;-88
2023/10/11 00:26:06;;;;;;;10.32;4.25;;;;;;;21.42;44.37;100819.00;688432;28;1310;-89
2023/10/11 00:26:27;;;;;;;8.95;4.40;;;;;;;21.34;44.41;100808.50;685588;28;1443;-87
2023/10/11 00:26:52;;;;;;;7.00;4.22;;;;;;;21.36;44.30;100806.72;691204;28;1304;-88
2023/10/11 00:27:13;;;;;;;7.65;4.50;;;;;;;21.39;44.34;100808.41;688138;28;1207;-88
2023/10/11 00:27:36;;;;;;;6.43;4.32;;;;;;;21.41;44.29;100813.69;688182;28;1200;-88
2023/10/11 00:27:58;;;;;;;7.35;4.80;;;;;;;21.35;44.38;100804.94;691062;28;1383;-88
2023/10/11 00:28:24;;;;;;;8.27;4.85;;;;;;;21.43;44.30;100817.19;690617;28;1314;-87
2023/10/11 00:28:45;;;;;;;8.02;4.53;;;;;;;21.40;44.26;100811.94;686105;28;1426;-90
2023/10/11 00:29:06;;;;;;;7.30;4.60;;;;;;;21.41;44.21;100811.94;688556;28;1248;-88
2023/10/11 00:29:29;;;;;;;9.55;4.80;;;;;;;21.44;44.23;100818.94;699406;28;1234;-88
2023/10/11 00:29:52;;;;;;;9.82;4.40;;;;;;;21.43;44.32;100809.22;693811;28;818;-87
2023/10/11 00:30:16;;;;;;;12.30;4.15;;;;;;;21.46;44.30;100811.84;696397;28;1258;-89
2023/10/11 00:30:38;;;;;;;9.35;4.30;;;;;;;21.46;44.25;100815.38;699295;28;1631;-88
2023/10/11 00:31:02;;;;;;;11.50;4.63;;;;;;;21.40;44.38;100806.66;693666;28;1479;-88
2023/10/11 00:31:22;;;;;;;9.93;4.60;;;;;;;21.41;44.40;100808.41;693641;28;1232;-88
2023/10/11 00:31:45;;;;;;;9.43;4.70;;;;;;;21.42;44.38;100803.06;690738;28;1391;-88
2023/10/11 00:32:05;;;;;;;6.20;4.30;;;;;;;21.37;44.37;100797.84;691261;28;1157;-88
2023/10/11 00:32:26;;;;;;;6.30;4.30;;;;;;;21.43;44.30;100811.88;693750;28;1191;-89
2023/10/11 00:32:47;;;;;;;8.05;4.60;;;;;;;21.41;44.38;100808.41;696148;28;1253;-87
2023/10/11 00:33:08;;;;;;;9.48;4.72;;;;;;;21.42;44.33;100811.03;699137;28;1282;-88
2023/10/11 00:33:32;;;;;;;8.97;4.50;;;;;;;21.39;44.33;100812.84;693608;28;1182;-87
2023/10/11 00:33:53;;;;;;;11.40;4.45;;;;;;;21.36;44.69;100805.81;693387;28;1276;-88
2023/10/11 00:34:16;;;;;;;11.40;4.40;;;;;;;21.36;44.37;100812.03;691000;28;1280;-88
2023/10/11 00:34:37;;;;;;;9.43;4.50;;;;;;;21.40;44.29;100806.66;685802;28;1195;-86
2023/10/11 00:34:57;;;;;;;6.47;4.10;;;;;;;21.37;44.42;100800.50;691271;28;1118;-88
2023/10/11 00:35:18;;;;;;;6.90;4.40;;;;;;;21.43;44.26;100806.56;690715;28;1267;-88
2023/10/11 00:35:46;;;;;;;8.77;4.80;;;;;;;21.43;44.41;100810.13;685617;28;1523;-87
2023/10/11 00:36:08;;;;;;;9.40;5.20;;;;;;;21.46;44.33;100812.72;688118;28;1255;-90
2023/10/11 00:36:30;;;;;;;10.75;5.07;;;;;;;21.34;44.38;100797.88;688175;28;1220;-89
2023/10/11 00:36:50;;;;;;;14.73;4.78;;;;;;;21.35;44.41;100815.53;685663;28;1055;-86
2023/10/11 00:37:11;;;;;;;14.90;4.67;;;;;;;21.37;44.74;100807.56;685704;28;1118;-89
2023/10/11 00:37:32;;;;;;;12.40;4.50;;;;;;;21.42;44.35;100810.13;685873;28;1307;-88
2023/10/11 00:37:54;;;;;;;9.07;4.85;;;;;;;21.41;44.50;100801.31;693606;28;1128;-88
2023/10/11 00:38:20;;;;;;;9.80;4.50;;;;;;;21.43;44.49;100806.56;690805;28;1232;-89
2023/10/11 00:38:50;;;;;;;9.38;4.63;;;;;;;21.37;44.42;100808.47;698443;28;1179;-87
2023/10/11 00:39:16;;;;;;;7.82;4.20;;;;;;;21.44;44.32;100806.56;688107;28;1918;-86
2023/10/11 00:39:38;;;;;;;6.85;4.10;;;;;;;21.42;44.44;100810.13;692964;28;1295;-87
2023/10/11 00:40:00;;;;;;;8.10;4.53;;;;;;;21.41;44.41;100809.28;688540;28;1300;-88
2023/10/11 00:40:33;;;;;;;8.27;4.47;;;;;;;21.43;44.49;100814.53;690560;28;1264;-89
2023/10/11 00:41:17;;;;;;;10.57;4.97;;;;;;;21.39;44.68;100804.91;693875;28;1351;-86
2023/10/11 00:41:40;;;;;;;10.43;5.07;;;;;;;21.47;44.26;100818.91;692435;28;1467;-88
2023/10/11 00:42:01;;;;;;;10.30;4.88;;;;;;;21.42;44.53;100805.72;691270;28;1283;-89
2023/10/11 00:42:23;;;;;;;8.68;4.53;;;;;;;21.43;44.40;100812.78;688361;28;1199;-89
2023/10/11 00:42:44;;;;;;;8.52;4.15;;;;;;;21.42;44.45;100804.81;691039;28;1354;-88
2023/10/11 00:43:06;;;;;;;7.32;4.00;;;;;;;21.43;44.38;100802.16;694053;28;1290;-87
2023/10/11 00:43:49;;;;;;;10.10;4.50;;;;;;;21.47;44.29;100805.63;690482;28;1201;-88
2023/10/11 00:44:10;;;;;;;15.13;5.40;;;;;;;21.49;44.24;100804.75;693618;28;1254;-87
2023/10/11 00:44:32;;;;;;;11.30;5.28;;;;;;;21.46;44.59;100807.41;690574;28;1333;-87
2023/10/11 00:44:53;;;;;;;11.82;5.20;;;;;;;21.50;44.49;100813.56;690642;28;1231;-87
2023/10/11 00:45:16;;;;;;;10.30;4.60;;;;;;;21.47;44.25;100805.63;691040;28;1068;-89
2023/10/11 00:45:43;;;;;;;9.27;4.65;;;;;;;21.49;44.25;100806.50;689445;28;1278;-88
2023/10/11 00:46:08;;;;;;;6.45;4.40;;;;;;;21.54;44.22;100809.97;690961;28;1333;-86
2023/10/11 00:47:07;;;;;;;7.45;4.45;;;;;;;21.55;44.30;100810.84;690850;28;987;-86
2023/10/11 00:47:19;;;;;;;7.38;4.53;;;;;;;21.55;44.42;100803.75;690991;28;1300;-87
2023/10/11 00:47:41;;;;;;;8.48;4.90;;;;;;;21.56;44.33;100808.16;693716;28;1125;-86
2023/10/11 00:48:10;;;;;;;8.82;4.97;;;;;;;21.54;43.90;100804.66;690858;28;1293;-88
2023/10/11 00:48:31;;;;;;;6.63;4.55;;;;;;;21.58;44.23;100811.66;688766;28;1417;-88
2023/10/11 00:48:57;;;;;;;7.53;4.75;;;;;;;21.57;44.17;100806.41;691029;28;1316;-88
2023/10/11 00:49:18;;;;;;;9.20;4.97;;;;;;;21.58;44.20;100803.69;693566;28;1519;-88
2023/10/11 00:49:39;;;;;;;9.68;5.35;;;;;;;21.62;44.19;100807.16;687989;28;1238;-87
2023/10/11 00:50:01;;;;;;;9.25;5.38;;;;;;;21.66;44.24;100813.31;690973;28;1247;-87
2023/10/11 00:50:23;;;;;;;9.10;5.25;;;;;;;21.65;44.44;100815.09;690922;28;1355;-88
2023/10/11 00:50:44;;;;;;;10.13;5.28;;;;;;;21.63;44.32;100799.19;690106;28;1268;-87
2023/10/11 00:51:07;;;;;;;11.60;5.47;;;;;;;21.64;44.21;100811.56;688280;28;1427;-87
2023/10/11 00:51:30;;;;;;;11.80;5.57;;;;;;;21.67;44.25;100805.31;693841;28;1266;-87
2023/10/11 00:51:50;;;;;;;10.98;5.65;;;;;;;21.63;43.95;100804.50;691086;28;1299;-88
2023/10/11 00:52:13;;;;;;;13.60;5.93;;;;;;;21.71;43.92;100799.03;693527;28;1096;-87
2023/10/11 00:52:34;;;;;;;11.93;5.50;;;;;;;21.68;44.15;100806.22;693020;28;1234;-88
2023/10/11 00:53:00;;;;;;;12.40;5.07;;;;;;;21.66;44.10;100808.00;696820;28;1365;-88
2023/10/11 00:53:20;;;;;;;12.65;4.90;;;;;;;21.72;44.05;100805.25;685170;28;1311;-87
2023/10/11 00:53:41;;;;;;;12.63;4.82;;;;;;;21.77;43.84;100814.88;692864;28;1133;-87
2023/10/11 00:54:04;;;;;;;13.90;4.77;;;;;;;21.75;43.84;100803.41;696284;28;1284;-88
2023/10/11 00:54:27;;;;;;;9.32;4.97;;;;;;;21.74;43.96;100806.97;687891;28;1340;-87
2023/10/11 00:54:48;;;;;;;8.80;4.93;;;;;;;21.74;43.92;100801.66;688431;28;815;-88
2023/10/11 00:55:18;;;;;;;6.80;4.70;;;;;;;21.73;43.91;100804.31;687741;28;1195;-88
2023/10/11 00:55:41;;;;;;;6.82;5.03;;;;;;;21.74;43.91;100803.41;687844;28;1095;-88
2023/10/11 00:56:04;;;;;;;7.40;5.43;;;;;;;21.81;43.82;100806.88;691231;28;1307;-88
2023/10/11 00:56:31;;;;;;;8.55;5.57;;;;;;;21.72;44.06;100803.47;691068;28;1311;-89
2023/10/11 00:56:52;;;;;;;9.95;5.32;;;;;;;21.74;44.00;100796.34;688215;28;1441;-89
2023/10/11 00:57:15;;;;;;;10.63;5.20;;;;;;;21.73;44.12;100809.63;693556;28;1255;-88
2023/10/11 00:57:36;;;;;;;9.85;5.22;;;;;;;21.79;44.10;100809.53;690692;28;1285;-87
2023/10/11 00:57:57;;;;;;;8.73;5.20;;;;;;;21.76;44.11;100802.50;685758;28;1313;-90
2023/10/11 00:58:19;;;;;;;10.30;5.45;;;;;;;21.82;43.99;100803.28;690949;28;1267;-87
2023/10/11 00:58:43;;;;;;;11.63;5.30;;;;;;;21.86;43.97;100811.19;693727;28;1328;-88
2023/10/11 00:59:14;;;;;;;11.82;5.10;;;;;;;21.83;43.97;100805.03;698744;28;1297;-88
2023/10/11 00:59:36;;;;;;;10.60;5.20;;;;;;;21.77;43.94;100798.06;693546;28;1084;-87
2023/10/11 00:59:57;;;;;;;9.70;5.50;;;;;;;21.83;43.85;100813.00;693651;28;957;-87
2023/10/11 01:00:21;;;;;;;8.35;5.03;;;;;;;21.80;43.98;100803.31;693422;28;1182;-88
2023/10/11 01:00:42;;;;;;;8.18;5.20;;;;;;;21.84;43.93;100802.38;689873;28;1199;-88
2023/10/11 01:01:03;;;;;;;8.40;5.20;;;;;;;21.80;44.00;100800.66;692808;28;1411;-88
2023/10/11 01:01:24;;;;;;;8.07;5.25;;;;;;;21.88;44.08;100814.66;690880;28;1301;-88
2023/10/11 01:01:45;;;;;;;10.77;5.30;;;;;;;21.80;44.00;100803.31;696798;28;1262;-89
2023/10/11 01:02:07;;;;;;;10.43;5.13;;;;;;;21.84;44.10;100813.00;693992;28;1369;-87
2023/10/11 01:02:31;;;;;;;11.02;5.45;;;;;;;21.78;44.09;100805.13;690734;28;1180;-86
2023/10/11 01:02:53;;;;;;;7.88;5.18;;;;;;;21.72;44.24;100800.81;693924;28;1259;-86
2023/10/11 01:03:14;;;;;;;8.63;5.00;;;;;;;21.70;44.22;100799.09;693658;28;1082;-89
2023/10/11 01:03:36;;;;;;;8.63;4.80;;;;;;;21.73;44.16;100799.00;696009;28;1267;-89
2023/10/11 01:03:56;;;;;;;10.13;4.90;;;;;;;21.64;44.31;100785.00;693542;28;1302;-87
2023/10/11 01:04:18;;;;;;;10.33;5.10;;;;;;;21.68;44.34;100796.44;690869;28;1263;-88
2023/10/11 01:04:41;;;;;;;9.10;5.18;;;;;;;21.64;44.15;100795.63;689347;28;1378;-87
2023/10/11 01:05:02;;;;;;;9.77;5.45;;;;;;;21.69;44.36;100803.50;688546;28;1283;-88
2023/10/11 01:05:22;;;;;;;10.30;5.70;;;;;;;21.62;44.34;100799.22;696073;28;1284;-88
2023/10/11 01:05:45;;;;;;;11.77;5.93;;;;;;;21.60;44.45;100793.06;691009;28;1203;-88
2023/10/11 01:06:05;;;;;;;11.07;5.63;;;;;;;21.62;44.50;100797.44;688366;28;1381;-87
2023/10/11 01:06:28;;;;;;;11.52;5.60;;;;;;;21.63;44.24;100793.88;688342;28;1203;-88
2023/10/11 01:06:49;;;;;;;12.02;5.40;;;;;;;21.64;44.67;100795.63;688044;28;1212;-89
2023/10/11 01:07:11;;;;;;;13.32;5.75;;;;;;;21.61;44.34;100795.69;685707;28;1214;-88
2023/10/11 01:07:32;;;;;;;10.90;5.47;;;;;;;21.67;44.54;100793.81;693429;28;1357;-88
2023/10/11 01:07:54;;;;;;;9.25;5.30;;;;;;;21.58;44.56;100790.41;690612;28;1263;-88
2023/10/11 01:08:15;;;;;;;8.00;5.25;;;;;;;21.64;44.30;100797.44;685707;28;1141;-88
2023/10/11 01:08:38;;;;;;;8.98;5.32;;;;;;;21.62;44.38;100800.09;690510;28;1235;-86
2023/10/11 01:08:59;;;;;;;9.77;5.70;;;;;;;21.62;44.44;100800.09;690673;28;1449;-87
2023/10/11 01:09:28;;;;;;;10.73;6.00;;;;;;;21.63;44.54;100796.53;687695;28;1226;-87
2023/10/11 01:09:50;;;;;;;9.57;6.00;;;;;;;21.61;44.58;100795.69;687888;28;1394;-87
2023/10/11 01:10:12;;;;;;;10.05;5.82;;;;;;;21.61;44.63;100795.69;687640;28;1329;-86
2023/10/11 01:10:33;;;;;;;11.10;5.60;;;;;;;21.60;44.75;100793.94;690620;28;1278;-87
2023/10/11 01:10:54;;;;;;;10.85;5.43;;;;;;;21.59;44.75;100792.16;691373;28;1306;-89
2023/10/11 01:11:15;;;;;;;9.00;5.30;;;;;;;21.63;44.50;100807.16;693546;28;1258;-87
2023/10/11 01:11:36;;;;;;;9.23;5.20;;;;;;;21.64;44.67;100805.38;690329;28;1307;-89
2023/10/11 01:11:57;;;;;;;12.40;5.60;;;;;;;21.66;44.72;100805.34;691150;28;1248;-88
2023/10/11 01:12:18;;;;;;;13.13;5.38;;;;;;;21.61;44.72;100787.72;690999;28;1027;-87
2023/10/11 01:12:39;;;;;;;13.38;5.25;;;;;;;21.60;44.77;100788.63;690521;28;1180;-89
2023/10/11 01:13:00;;;;;;;11.05;5.22;;;;;;;21.66;44.62;100797.38;689008;28;1136;-87
2023/10/11 01:13:21;;;;;;;9.02;5.38;;;;;;;21.61;44.54;100785.06;682719;28;1212;-86
2023/10/11 01:13:50;;;;;;;8.82;5.68;;;;;;;21.66;44.52;100800.03;686998;28;1249;-89
2023/10/11 01:14:13;;;;;;;7.90;5.40;;;;;;;21.75;44.66;100802.50;685607;28;1407;-87
2023/10/11 01:14:45;;;;;;;8.30;5.00;;;;;;;21.68;44.51;100788.47;690717;28;1218;-89
2023/10/11 01:15:11;;;;;;;17.63;5.30;;;;;;;21.72;44.52;100797.28;693426;28;1145;-86
2023/10/11 01:15:33;;;;;;;16.08;5.20;;;;;;;21.70;44.48;100794.63;685567;28;1321;-87
2023/10/11 01:15:54;;;;;;;10.17;5.30;;;;;;;21.63;44.66;100793.88;691090;28;862;-89
2023/10/11 01:16:28;;;;;;;11.57;5.75;;;;;;;21.61;44.56;100792.16;687475;28;1443;-90
2023/10/11 01:16:52;;;;;;;11.57;5.40;;;;;;;21.63;44.57;100788.56;693524;28;1204;-87
2023/10/11 01:17:12;;;;;;;9.35;5.00;;;;;;;21.66;44.50;100781.44;687932;28;1381;-88
2023/10/11 01:17:33;;;;;;;8.60;4.80;;;;;;;21.65;44.67;100788.56;688049;28;1103;-87
2023/10/11 01:17:54;;;;;;;8.23;5.03;;;;;;;21.63;44.73;100785.03;688531;28;1204;-87
2023/10/11 01:18:14;;;;;;;7.03;5.28;;;;;;;21.66;44.86;100790.28;691034;28;1464;-87
2023/10/11 01:18:40;;;;;;;7.57;5.50;;;;;;;21.66;44.37;100781.44;693619;28;1186;-88
2023/10/11 01:19:07;;;;;;;11.70;5.38;;;;;;;21.60;44.78;100788.63;691228;28;1524;-87
2023/10/11 01:19:28;;;;;;;11.65;5.15;;;;;;;21.63;44.90;100799.19;693631;28;1452;-93
2023/10/11 01:19:51;;;;;;;14.13;5.33;;;;;;;21.75;44.50;100791.88;691055;28;1261;-87
2023/10/11 01:20:21;;;;;;;11.32;5.22;;;;;;;21.75;44.59;100791.88;693540;28;1356;-88
2023/10/11 01:20:42;;;;;;;9.88;5.20;;;;;;;21.78;44.48;100786.53;694361;28;1152;-87
2023/10/11 01:21:04;;;;;;;8.98;5.30;;;;;;;21.80;44.50;100792.69;684943;28;1270;-89
2023/10/11 01:21:32;;;;;;;10.10;5.78;;;;;;;21.76;44.59;100783.91;690712;28;1314;-89
2023/10/11 01:21:59;;;;;;;9.80;5.80;;;;;;;21.78;44.70;100787.41;691053;28;918;-90
2023/10/11 01:22:19;;;;;;;9.55;5.40;;;;;;;21.86;44.53;100789.94;690632;28;1399;-88
2023/10/11 01:22:46;;;;;;;7.97;4.97;;;;;;;21.89;44.54;100792.50;688006;28;1169;-88
2023/10/11 01:23:07;;;;;;;9.52;5.00;;;;;;;21.88;44.33;100792.56;690409;28;1252;-86
2023/10/11 01:23:27;;;;;;;10.77;5.05;;;;;;;21.85;44.29;100790.84;688038;28;1078;-87
2023/10/11 01:23:48;;;;;;;12.73;5.30;;;;;;;21.92;44.18;100783.63;691061;28;1098;-86
2023/10/11 01:24:09;;;;;;;10.02;4.95;;;;;;;21.86;44.44;100779.31;687737;28;1137;-87
2023/10/11 01:24:29;;;;;;;9.13;4.97;;;;;;;21.88;44.49;100785.44;692610;28;1283;-88
2023/10/11 01:24:50;;;;;;;7.75;5.10;;;;;;;21.77;44.36;100768.84;688345;28;1349;-89
2023/10/11 01:25:12;;;;;;;8.95;5.35;;;;;;;21.89;44.51;100786.34;684905;28;1323;-88
2023/10/11 01:25:33;;;;;;;10.35;5.72;;;;;;;21.89;44.45;100781.88;690808;28;1405;-88
2023/10/11 01:25:55;;;;;;;10.53;5.60;;;;;;;21.83;44.48;100778.47;688185;28;1276;-86
2023/10/11 01:26:17;;;;;;;9.18;5.32;;;;;;;21.86;44.42;100784.63;685305;28;1292;-88
2023/10/11 01:26:37;;;;;;;7.57;5.00;;;;;;;21.85;44.49;100771.34;688155;28;1193;-87
2023/10/11 01:26:58;;;;;;;6.45;5.00;;;;;;;21.85;44.54;100772.25;693625;28;1282;-88
2023/10/11 01:27:21;;;;;;;11.50;5.50;;;;;;;21.83;44.50;100779.34;693474;28;1256;-88
2023/10/11 01:27:44;;;;;;;12.30;5.50;;;;;;;21.84;44.50;100775.81;690951;28;1259;-88
2023/10/11 01:28:05;;;;;;;12.40;5.00;;;;;;;21.87;44.53;100782.81;692912;28;1121;-87
2023/10/11 01:28:27;;;;;;;7.00;4.63;;;;;;;21.80;44.73;100774.09;690802;28;1218;-86
2023/10/11 01:28:48;;;;;;;6.32;4.85;;;;;;;21.82;44.62;100774.94;690771;28;1212;-87
2023/10/11 01:29:09;;;;;;;6.53;4.88;;;;;;;21.81;44.62;100778.50;688038;28;1224;-88
2023/10/11 01:29:30;;;;;;;7.55;5.28;;;;;;;21.82;44.48;100777.59;690852;28;1319;-88
2023/10/11 01:29:51;;;;;;;12.77;5.15;;;;;;;21.77;44.53;100775.03;693794;28;1156;-88
2023/10/11 01:30:12;;;;;;;15.18;5.65;;;;;;;21.80;44.72;100773.25;690834;28;1314;-87
2023/10/11 01:30:33;;;;;;;15.63;5.83;;;;;;;21.77;44.54;100768.84;688216;28;1152;-87
2023/10/11 01:30:55;;;;;;;9.70;5.60;;;;;;;21.81;44.48;100785.63;688348;28;1354;-86
2023/10/11 01:31:19;;;;;;;11.10;5.50;;;;;;;21.82;44.41;100780.25;693526;28;1284;-88
2023/10/11 01:31:40;;;;;;;13.25;5.53;;;;;;;21.84;44.66;100774.91;692773;28;1346;-87
2023/10/11 01:32:01;;;;;;;12.77;5.30;;;;;;;21.83;44.62;100781.13;693821;28;1215;-91
2023/10/11 01:32:21;;;;;;;10.50;5.10;;;;;;;21.86;44.57;100783.72;688334;28;1274;-89
2023/10/11 01:32:42;;;;;;;6.97;4.72;;;;;;;21.85;44.49;100766.94;687512;28;1242;-88
2023/10/11 01:33:05;;;;;;;7.60;4.65;;;;;;;21.85;44.62;100769.59;688144;28;1172;-88
2023/10/11 01:33:27;;;;;;;6.47;4.10;;;;;;;21.84;44.65;100775.81;688390;28;1317;-90
2023/10/11 01:33:52;;;;;;;7.78;4.13;;;;;;;21.83;44.70;100779.34;688222;28;1300;-88
2023/10/11 01:34:14;;;;;;;9.35;4.32;;;;;;;21.86;44.56;100773.09;690782;28;1216;-88
2023/10/11 01:34:35;;;;;;;8.32;4.88;;;;;;;21.87;44.69;100774.84;687755;28;1732;-88
2023/10/11 01:34:55;;;;;;;10.20;5.40;;;;;;;21.86;44.43;100775.75;690838;28;1022;-86
2023/10/11 01:35:19;;;;;;;9.27;5.53;;;;;;;21.87;44.38;100778.38;691012;28;995;-90
2023/10/11 01:35:40;;;;;;;9.65;5.25;;;;;;;21.89;44.49;100773.91;696166;28;1260;-86
2023/10/11 01:36:06;;;;;;;8.88;4.80;;;;;;;21.82;44.53;100761.66;693830;28;1150;-89
2023/10/11 01:36:26;;;;;;;15.25;5.15;;;;;;;21.95;44.62;100780.88;688271;28;1364;-86
2023/10/11 01:36:47;;;;;;;14.20;5.35;;;;;;;21.85;44.68;100769.59;692918;28;1192;-86
2023/10/11 01:37:07;;;;;;;11.57;5.10;;;;;;;21.90;44.41;100780.13;690971;28;1063;-89
2023/10/11 01:37:28;;;;;;;7.15;5.00;;;;;;;21.86;44.59;100776.63;685296;28;1052;-88
2023/10/11 01:37:49;;;;;;;6.80;5.00;;;;;;;21.88;44.61;100777.47;685070;28;1388;-87
2023/10/11 01:38:10;;;;;;;7.05;5.00;;;;;;;21.93;44.39;100771.22;688289;28;1290;-88
2023/10/11 01:38:33;;;;;;;7.30;4.88;;;;;;;21.97;44.39;100764.91;690900;28;1208;-90
2023/10/11 01:38:54;;;;;;;7.75;4.78;;;;;;;21.97;44.32;100767.56;690889;28;1351;-87
2023/10/11 01:39:15;;;;;;;8.38;5.00;;;;;;;21.97;44.26;100767.56;685171;28;1922;-87
2023/10/11 01:39:35;;;;;;;8.10;5.00;;;;;;;22.01;44.41;100772.78;687945;28;1205;-88
2023/10/11 01:39:56;;;;;;;7.97;4.60;;;;;;;22.02;44.37;100779.00;688462;28;902;-88
2023/10/11 01:40:21;;;;;;;7.65;4.40;;;;;;;21.97;44.34;100767.56;687642;28;1244;-86
2023/10/11 01:40:42;;;;;;;7.88;4.40;;;;;;;22.03;44.15;100773.66;690669;28;1268;-88
2023/10/11 01:41:06;;;;;;;7.60;4.88;;;;;;;22.04;44.22;100771.88;690565;28;1360;-88
2023/10/11 01:41:28;;;;;;;8.18;5.10;;;;;;;21.98;44.22;100766.66;696540;28;1336;-87
2023/10/11 01:41:49;;;;;;;7.85;5.10;;;;;;;21.98;44.52;100769.31;699290;28;1187;-88
2023/10/11 01:42:10;;;;;;;8.35;5.20;;;;;;;22.03;44.36;100770.13;696074;28;1277;-88
2023/10/11 01:42:33;;;;;;;7.22;4.90;;;;;;;22.03;44.24;100773.66;690360;28;1354;-87
2023/10/11 01:42:54;;;;;;;13.10;5.18;;;;;;;21.97;44.43;100760.50;687036;28;1266;-89
2023/10/11 01:43:15;;;;;;;13.35;5.40;;;;;;;22.01;44.47;100766.63;682747;28;1150;-88
2023/10/11 01:43:36;;;;;;;15.75;6.15;;;;;;;22.03;44.16;100775.44;693993;28;1200;-88
2023/10/11 01:43:56;;;;;;;12.38;6.00;;;;;;;22.01;44.38;100766.63;693538;28;1203;-88
2023/10/11 01:44:18;;;;;;;17.38;5.75;;;;;;;22.01;44.23;100771.94;688337;28;1243;-87
2023/10/11 01:44:39;;;;;;;16.63;5.15;;;;;;;22.00;44.39;100779.03;692529;28;1248;-89
2023/10/11 01:45:00;;;;;;;16.25;4.93;;;;;;;22.01;44.27;100775.44;691122;28;1364;-90
2023/10/11 01:45:23;;;;;;;10.73;4.80;;;;;;;22.01;44.44;100766.63;693635;28;1093;-86
2023/10/11 01:45:44;;;;;;;8.45;4.78;;;;;;;21.97;44.26;100759.59;689877;28;1286;-88
2023/10/11 01:46:05;;;;;;;8.48;4.80;;;;;;;21.95;44.27;100756.97;690883;28;1150;-87
2023/10/11 01:46:35;;;;;;;7.35;5.03;;;;;;;21.97;44.42;100767.56;688092;28;1141;-86
2023/10/11 01:46:55;;;;;;;8.75;5.60;;;;;;;21.96;44.41;100765.84;688310;28;882;-88
2023/10/11 01:47:19;;;;;;;10.73;5.60;;;;;;;21.96;44.48;100773.81;688142;28;1419;-87
2023/10/11 01:47:39;;;;;;;10.40;4.90;;;;;;;21.94;44.44;100771.16;690736;28;1244;-88
2023/10/11 01:48:03;;;;;;;11.60;4.78;;;;;;;21.96;44.65;100769.38;691142;28;1245;-87
2023/10/11 01:48:24;;;;;;;10.77;4.90;;;;;;;21.97;44.49;100760.50;695476;28;1334;-87
2023/10/11 01:48:45;;;;;;;10.45;5.00;;;;;;;22.03;44.28;100770.13;688905;28;1168;-87
2023/10/11 01:49:06;;;;;;;8.63;4.95;;;;;;;21.97;44.34;100767.56;683069;28;1392;-86
2023/10/11 01:49:27;;;;;;;8.00;4.90;;;;;;;21.98;44.63;100769.31;688168;28;996;-88